createdAt,value
2018-10-17T00:01:05.109Z,101157.92
2018-10-17T00:03:33.945Z,101165.24
2018-10-17T00:06:02.754Z,101161.33
2018-10-17T00:08:31.659Z,101156.98
2018-10-17T00:11:00.570Z,101156.36
2018-10-17T00:13:29.270Z,101154.08
2018-10-17T00:16:02.754Z,101157.48
2018-10-17T00:18:31.495Z,101157.88
2018-10-17T00:21:00.239Z,101165.13
2018-10-17T00:23:29.142Z,101158.64
2018-10-17T00:26:02.739Z,101149.95
2018-10-17T00:28:34.456Z,101153.86
2018-10-17T00:31:03.766Z,101157.70
2018-10-17T00:33:32.676Z,101154.48
2018-10-17T00:36:02.494Z,101152.63
2018-10-17T00:38:31.272Z,101145.92
2018-10-17T00:41:00.209Z,101151.80
2018-10-17T00:43:29.019Z,101144.43
2018-10-17T00:45:58.936Z,101150.51
2018-10-17T00:48:27.821Z,101143.77
2018-10-17T00:50:56.757Z,101151.28
2018-10-17T00:53:25.538Z,101151.06
2018-10-17T00:55:54.295Z,101148.27
2018-10-17T00:58:23.261Z,101156.22
2018-10-17T01:00:51.909Z,101148.13
2018-10-17T01:03:20.627Z,101152.58
2018-10-17T01:05:49.370Z,101143.59
2018-10-17T01:08:18.077Z,101148.83
2018-10-17T01:10:46.684Z,101149.63
2018-10-17T01:13:15.461Z,101149.72
2018-10-17T01:15:44.106Z,101145.77
2018-10-17T01:18:12.676Z,101142.14
2018-10-17T01:20:41.392Z,101138.84
2018-10-17T01:23:10.256Z,101142.56
2018-10-17T01:25:38.889Z,101135.94
2018-10-17T01:28:07.547Z,101137.89
2018-10-17T01:30:36.187Z,101135.87
2018-10-17T01:33:04.998Z,101138.55
2018-10-17T01:35:33.815Z,101131.30
2018-10-17T01:38:02.499Z,101132.19
2018-10-17T01:40:31.131Z,101131.90
2018-10-17T01:42:59.881Z,101129.46
2018-10-17T01:45:28.580Z,101118.58
2018-10-17T01:47:58.397Z,101114.95
2018-10-17T01:50:26.933Z,101111.03
2018-10-17T01:52:55.593Z,101104.73
2018-10-17T01:55:24.516Z,101104.34
2018-10-17T01:57:53.291Z,101098.42
2018-10-17T02:00:22.018Z,101099.03
2018-10-17T02:02:50.765Z,101097.37
2018-10-17T02:05:19.434Z,101100.48
2018-10-17T02:07:48.156Z,101101.66
2018-10-17T02:10:16.774Z,101102.06
2018-10-17T02:12:45.473Z,101102.11
2018-10-17T02:15:14.046Z,101098.92
2018-10-17T02:17:42.800Z,101101.93
2018-10-17T02:20:11.439Z,101100.27
2018-10-17T02:22:40.169Z,101103.45
2018-10-17T02:25:08.795Z,101101.72
2018-10-17T02:27:37.531Z,101100.81
2018-10-17T02:30:06.928Z,101095.56
2018-10-17T02:32:35.552Z,101100.99
2018-10-17T02:35:09.926Z,101101.20
2018-10-17T02:37:38.460Z,101099.94
2018-10-17T02:40:07.184Z,101100.05
2018-10-17T02:42:35.966Z,101102.61
2018-10-17T02:45:04.786Z,101103.41
2018-10-17T02:47:33.525Z,101104.41
2018-10-17T02:50:06.450Z,101109.42
2018-10-17T02:52:35.532Z,101113.42
2018-10-17T02:55:04.337Z,101109.31
2018-10-17T02:57:33.058Z,101107.48
2018-10-17T03:00:02.234Z,101099.66
2018-10-17T03:02:31.036Z,101109.02
2018-10-17T03:04:59.786Z,101107.45
2018-10-17T03:07:28.647Z,101111.89
2018-10-17T03:09:57.331Z,101108.59
2018-10-17T03:12:26.170Z,101112.94
2018-10-17T03:14:55.131Z,101113.71
2018-10-17T03:17:23.693Z,101116.60
2018-10-17T03:19:52.398Z,101122.69
2018-10-17T03:22:21.109Z,101120.02
2018-10-17T03:24:49.892Z,101119.28
2018-10-17T03:27:18.579Z,101121.86
2018-10-17T03:29:47.216Z,101133.91
2018-10-17T03:32:15.906Z,101131.84
2018-10-17T03:34:44.576Z,101133.97
2018-10-17T03:37:13.252Z,101131.29
2018-10-17T03:39:41.844Z,101134.23
2018-10-17T03:42:10.534Z,101128.16
2018-10-17T03:44:39.307Z,101127.88
2018-10-17T03:47:08.059Z,101130.11
2018-10-17T03:49:36.694Z,101130.24
2018-10-17T03:52:05.800Z,101128.14
2018-10-17T03:54:34.402Z,101133.56
2018-10-17T03:57:03.004Z,101132.61
2018-10-17T03:59:31.810Z,101134.39
2018-10-17T04:02:00.373Z,101137.58
2018-10-17T04:04:29.043Z,101131.27
2018-10-17T04:06:57.798Z,101135.05
2018-10-17T04:09:26.471Z,101130.73
2018-10-17T04:11:55.218Z,101128.92
2018-10-17T04:14:23.915Z,101129.07
2018-10-17T04:16:52.700Z,101127.28
2018-10-17T04:19:21.562Z,101129.28
2018-10-17T04:21:50.097Z,101129.31
2018-10-17T04:24:18.745Z,101126.42
2018-10-17T04:26:48.134Z,101129.55
2018-10-17T04:29:17.049Z,101124.44
2018-10-17T04:31:45.764Z,101127.02
2018-10-17T04:34:14.560Z,101131.92
2018-10-17T04:36:43.297Z,101124.19
2018-10-17T04:39:12.701Z,101122.55
2018-10-17T04:41:41.844Z,101123.95
2018-10-17T04:44:11.824Z,101131.57
2018-10-17T04:46:40.902Z,101135.14
2018-10-17T04:49:10.284Z,101138.27
2018-10-17T04:51:38.859Z,101136.00
2018-10-17T04:54:07.860Z,101133.27
2018-10-17T04:56:36.634Z,101132.45
2018-10-17T04:59:05.547Z,101133.31
2018-10-17T05:01:34.382Z,101134.59
2018-10-17T05:04:03.037Z,101136.08
2018-10-17T05:06:31.759Z,101132.89
2018-10-17T05:09:00.636Z,101131.91
2018-10-17T05:11:29.322Z,101137.59
2018-10-17T05:13:58.012Z,101129.89
2018-10-17T05:16:27.711Z,101129.79
2018-10-17T05:18:56.520Z,101135.47
2018-10-17T05:21:25.185Z,101134.85
2018-10-17T05:23:54.028Z,101140.21
2018-10-17T05:26:22.818Z,101140.21
2018-10-17T05:28:51.570Z,101141.94
2018-10-17T05:31:20.338Z,101144.98
2018-10-17T05:33:49.125Z,101144.68
2018-10-17T05:36:17.819Z,101150.48
2018-10-17T05:38:46.494Z,101155.02
2018-10-17T05:41:15.280Z,101152.40
2018-10-17T05:43:43.964Z,101150.63
2018-10-17T05:46:12.848Z,101149.30
2018-10-17T05:48:41.657Z,101156.81
2018-10-17T05:51:10.500Z,101153.67
2018-10-17T05:53:39.128Z,101154.45
2018-10-17T05:56:07.800Z,101157.23
2018-10-17T05:58:36.448Z,101156.28
2018-10-17T06:01:05.562Z,101159.91
2018-10-17T06:03:34.301Z,101161.14
2018-10-17T06:06:03.030Z,101158.75
2018-10-17T06:08:32.028Z,101154.11
2018-10-17T06:11:00.785Z,101163.09
2018-10-17T06:13:29.504Z,101162.47
2018-10-17T06:15:58.292Z,101160.77
2018-10-17T06:18:27.092Z,101168.94
2018-10-17T06:20:55.899Z,101170.00
2018-10-17T06:23:25.279Z,101167.37
2018-10-17T06:25:54.241Z,101163.14
2018-10-17T06:28:23.081Z,101157.39
2018-10-17T06:30:52.120Z,101166.38
2018-10-17T06:33:20.765Z,101162.91
2018-10-17T06:35:49.684Z,101164.14
2018-10-17T06:38:18.485Z,101164.69
2018-10-17T06:40:47.327Z,101166.25
2018-10-17T06:43:16.120Z,101164.59
2018-10-17T06:45:44.978Z,101166.91
2018-10-17T06:48:13.734Z,101163.20
2018-10-17T06:50:42.847Z,101165.56
2018-10-17T06:53:11.551Z,101167.12
2018-10-17T06:55:40.627Z,101164.47
2018-10-17T06:58:09.701Z,101164.05
2018-10-17T07:00:38.334Z,101164.25
2018-10-17T07:03:07.096Z,101166.11
2018-10-17T07:05:35.848Z,101170.81
2018-10-17T07:08:04.616Z,101170.17
2018-10-17T07:10:33.331Z,101169.81
2018-10-17T07:13:02.145Z,101167.98
2018-10-17T07:15:31.031Z,101174.02
2018-10-17T07:17:59.628Z,101165.72
2018-10-17T07:20:28.266Z,101176.16
2018-10-17T07:22:56.943Z,101176.81
2018-10-17T07:25:25.678Z,101176.06
2018-10-17T07:27:54.381Z,101172.84
2018-10-17T07:30:23.334Z,101180.52
2018-10-17T07:32:52.022Z,101177.20
2018-10-17T07:35:20.824Z,101175.64
2018-10-17T07:37:49.753Z,101179.28
2018-10-17T07:40:18.588Z,101177.62
2018-10-17T07:42:47.252Z,101180.69
2018-10-17T07:45:15.926Z,101182.11
2018-10-17T07:47:45.092Z,101174.29
2018-10-17T07:50:14.895Z,101176.74
2018-10-17T07:52:43.718Z,101180.45
2018-10-17T07:55:13.013Z,101171.68
2018-10-17T07:57:41.864Z,101174.73
2018-10-17T08:00:13.569Z,101172.53
2018-10-17T08:02:42.268Z,101179.05
2018-10-17T08:05:11.407Z,101175.89
2018-10-17T08:07:40.170Z,101176.53
2018-10-17T08:10:12.624Z,101179.95
2018-10-17T08:12:41.270Z,101174.98
2018-10-17T08:15:10.532Z,101173.80
2018-10-17T08:17:39.277Z,101180.21
2018-10-17T08:20:11.039Z,101178.98
2018-10-17T08:22:40.326Z,101181.56
2018-10-17T08:25:10.320Z,101182.98
2018-10-17T08:27:39.171Z,101182.52
2018-10-17T08:30:09.693Z,101186.63
2018-10-17T08:32:40.427Z,101182.87
2018-10-17T08:35:09.749Z,101184.30
2018-10-17T08:37:39.251Z,101184.35
2018-10-17T08:40:10.039Z,101186.28
2018-10-17T08:42:38.717Z,101187.81
2018-10-17T08:45:08.077Z,101187.69
2018-10-17T08:47:36.631Z,101184.88
2018-10-17T08:50:06.917Z,101188.64
2018-10-17T08:52:35.677Z,101188.81
2018-10-17T08:55:04.923Z,101179.94
2018-10-17T08:57:33.666Z,101185.53
2018-10-17T09:00:03.052Z,101185.48
2018-10-17T09:02:32.007Z,101183.23
2018-10-17T09:05:01.037Z,101181.88
2018-10-17T09:07:31.376Z,101181.88
2018-10-17T09:10:00.268Z,101182.43
2018-10-17T09:12:29.132Z,101185.18
2018-10-17T09:14:58.214Z,101187.50
2018-10-17T09:17:27.242Z,101179.83
2018-10-17T09:19:56.505Z,101178.38
2018-10-17T09:22:26.329Z,101175.30
2018-10-17T09:24:54.954Z,101174.12
2018-10-17T09:27:23.692Z,101179.58
2018-10-17T09:30:03.490Z,101179.65
2018-10-17T09:32:32.827Z,101180.58
2018-10-17T09:35:01.714Z,101173.94
2018-10-17T09:37:30.396Z,101182.73
2018-10-17T09:40:00.966Z,101183.36
2018-10-17T09:42:29.869Z,101182.56
2018-10-17T09:44:58.603Z,101179.59
2018-10-17T09:47:27.859Z,101182.07
2018-10-17T09:50:05.756Z,101181.07
2018-10-17T09:52:34.851Z,101187.86
2018-10-17T09:55:03.834Z,101186.86
2018-10-17T09:57:32.798Z,101187.18
2018-10-17T10:00:08.455Z,101189.95
2018-10-17T10:02:40.042Z,101187.77
2018-10-17T10:05:08.891Z,101188.86
2018-10-17T10:07:39.473Z,101191.94
2018-10-17T10:10:12.318Z,101190.66
2018-10-17T10:12:40.998Z,101191.06
2018-10-17T10:15:10.657Z,101184.95
2018-10-17T10:17:39.764Z,101177.48
2018-10-17T10:20:08.781Z,101180.06
2018-10-17T10:22:37.548Z,101179.05
2018-10-17T10:25:07.059Z,101175.60
2018-10-17T10:27:35.950Z,101177.83
2018-10-17T10:30:07.269Z,101174.91
2018-10-17T10:32:40.692Z,101174.65
2018-10-17T10:35:09.860Z,101169.24
2018-10-17T10:37:38.951Z,101169.00
2018-10-17T10:40:10.398Z,101169.09
2018-10-17T10:42:39.104Z,101166.78
2018-10-17T10:45:08.628Z,101163.84
2018-10-17T10:47:37.642Z,101158.97
2018-10-17T10:50:09.591Z,101161.44
2018-10-17T10:52:38.297Z,101161.18
2018-10-17T10:55:08.127Z,101164.52
2018-10-17T10:57:37.148Z,101158.27
2018-10-17T11:00:16.168Z,101157.20
2018-10-17T11:02:45.048Z,101157.99
2018-10-17T11:05:14.274Z,101152.81
2018-10-17T11:07:43.980Z,101146.00
2018-10-17T11:10:18.143Z,101152.81
2018-10-17T11:12:47.003Z,101149.82
2018-10-17T11:15:16.111Z,101142.48
2018-10-17T11:17:44.951Z,101148.02
2018-10-17T11:20:13.936Z,101149.69
2018-10-17T11:22:42.700Z,101152.13
2018-10-17T11:25:14.894Z,101145.03
2018-10-17T11:27:43.761Z,101148.81
2018-10-17T11:30:15.936Z,101146.03
2018-10-17T11:32:44.823Z,101143.78
2018-10-17T11:35:13.748Z,101140.17
2018-10-17T11:37:42.555Z,101135.89
2018-10-17T11:40:12.658Z,101134.31
2018-10-17T11:42:41.577Z,101124.45
2018-10-17T11:45:10.349Z,101122.24
2018-10-17T11:47:39.105Z,101122.72
2018-10-17T11:50:09.441Z,101121.71
2018-10-17T11:52:45.504Z,101123.98
2018-10-17T11:55:14.421Z,101126.52
2018-10-17T11:57:43.172Z,101124.59
2018-10-17T12:00:13.344Z,101120.00
2018-10-17T12:02:43.845Z,101112.22
2018-10-17T12:05:14.251Z,101109.59
2018-10-17T12:10:17.681Z,101108.27
2018-10-17T12:12:46.423Z,101109.70
2018-10-17T12:15:16.197Z,101109.26
2018-10-17T12:17:45.548Z,101111.31
2018-10-17T12:20:15.271Z,101116.08
2018-10-17T12:22:47.301Z,101109.35
2018-10-17T12:25:16.111Z,101106.92
2018-10-17T12:27:45.271Z,101104.41
2018-10-17T12:30:15.095Z,101104.34
2018-10-17T12:32:49.172Z,101106.30
2018-10-17T12:35:18.681Z,101108.57
2018-10-17T12:37:47.426Z,101106.26
2018-10-17T12:40:16.363Z,101104.09
2018-10-17T12:42:46.885Z,101103.34
2018-10-17T12:45:16.048Z,101102.47
2018-10-17T12:47:44.788Z,101102.85
2018-10-17T12:50:13.872Z,101096.95
2018-10-17T12:52:48.367Z,101092.13
2018-10-17T12:55:17.088Z,101099.44
2018-10-17T12:57:46.002Z,101097.08
2018-10-17T13:00:17.740Z,101093.93
2018-10-17T13:02:55.509Z,101092.09
2018-10-17T13:05:24.428Z,101091.57
2018-10-17T13:07:53.164Z,101090.33
2018-10-17T13:10:21.882Z,101087.86
2018-10-17T13:12:51.332Z,101084.05
2018-10-17T13:15:20.343Z,101087.25
2018-10-17T13:17:49.119Z,101084.66
2018-10-17T13:20:18.047Z,101079.83
2018-10-17T13:22:49.590Z,101083.07
2018-10-17T13:25:18.272Z,101082.64
2018-10-17T13:27:47.827Z,101079.73
2018-10-17T13:30:17.584Z,101076.37
2018-10-17T13:32:54.263Z,101076.63
2018-10-17T13:35:22.960Z,101074.09
2018-10-17T13:37:52.802Z,101071.67
2018-10-17T13:40:21.583Z,101075.27
2018-10-17T13:42:50.794Z,101070.49
2018-10-17T13:45:19.807Z,101076.00
2018-10-17T13:47:48.700Z,101072.44
2018-10-17T13:50:17.698Z,101072.75
2018-10-17T13:52:49.791Z,101069.77
2018-10-17T13:55:19.282Z,101071.13
2018-10-17T13:57:48.053Z,101072.75
2018-10-17T14:00:16.855Z,101069.45
2018-10-17T14:02:45.553Z,101069.89
2018-10-17T14:05:15.026Z,101069.65
2018-10-17T14:07:44.089Z,101072.34
2018-10-17T14:10:12.863Z,101073.69
2018-10-17T14:12:42.052Z,101066.28
2018-10-17T14:15:10.884Z,101062.64
2018-10-17T14:17:39.664Z,101063.98
2018-10-17T14:20:08.518Z,101056.42
2018-10-17T14:22:46.772Z,101055.11
2018-10-17T14:25:15.935Z,101049.71
2018-10-17T14:27:44.778Z,101056.61
2018-10-17T14:30:13.946Z,101048.36
2018-10-17T14:32:42.633Z,101055.13
2018-10-17T14:35:13.214Z,101060.89
2018-10-17T14:37:42.241Z,101060.09
2018-10-17T14:40:11.967Z,101058.73
2018-10-17T14:42:50.063Z,101053.84
2018-10-17T14:45:19.177Z,101058.75
2018-10-17T14:47:48.168Z,101054.88
2018-10-17T14:50:16.987Z,101058.66
2018-10-17T14:52:52.768Z,101061.19
2018-10-17T14:55:21.557Z,101059.02
2018-10-17T14:57:50.188Z,101065.13
2018-10-17T15:00:18.950Z,101063.58
2018-10-17T15:02:48.885Z,101060.22
2018-10-17T15:05:18.889Z,101063.67
2018-10-17T15:07:47.848Z,101071.25
2018-10-17T15:10:16.891Z,101071.94
2018-10-17T15:12:49.699Z,101071.55
2018-10-17T15:15:18.438Z,101068.95
2018-10-17T15:17:49.040Z,101075.31
2018-10-17T15:20:18.122Z,101074.84
2018-10-17T15:22:54.500Z,101071.26
2018-10-17T15:25:23.488Z,101071.01
2018-10-17T15:27:52.677Z,101071.23
2018-10-17T15:30:21.768Z,101072.45
2018-10-17T15:33:05.002Z,101078.48
2018-10-17T15:35:33.779Z,101074.84
2018-10-17T15:38:02.519Z,101080.69
2018-10-17T15:40:31.448Z,101086.25
2018-10-17T15:43:01.101Z,101085.30
2018-10-17T15:45:29.904Z,101090.02
2018-10-17T15:47:58.772Z,101092.72
2018-10-17T15:50:27.463Z,101087.16
2018-10-17T15:52:58.859Z,101094.91
2018-10-17T15:55:27.608Z,101097.27
2018-10-17T15:57:57.180Z,101098.27
2018-10-17T16:00:26.073Z,101098.06
2018-10-17T16:03:01.976Z,101101.13
2018-10-17T16:05:30.812Z,101102.45
2018-10-17T16:07:59.621Z,101107.57
2018-10-17T16:10:28.447Z,101103.69
2018-10-17T16:12:57.200Z,101108.44
2018-10-17T16:15:26.215Z,101113.19
2018-10-17T16:17:55.262Z,101116.03
2018-10-17T16:20:24.328Z,101115.98
2018-10-17T16:22:53.112Z,101113.53
2018-10-17T16:25:22.148Z,101120.34
2018-10-17T16:27:51.275Z,101120.98
2018-10-17T16:30:20.155Z,101121.80
2018-10-17T16:32:52.584Z,101125.65
2018-10-17T16:35:21.398Z,101130.53
2018-10-17T16:37:50.179Z,101130.97
2018-10-17T16:40:19.557Z,101129.23
2018-10-17T16:42:48.196Z,101137.63
2018-10-17T16:45:18.148Z,101139.98
2018-10-17T16:47:47.457Z,101138.16
2018-10-17T16:50:16.682Z,101137.39
2018-10-17T16:52:45.673Z,101138.56
2018-10-17T16:55:14.742Z,101145.14
2018-10-17T16:57:43.710Z,101152.75
2018-10-17T17:00:13.289Z,101153.62
2018-10-17T17:02:42.263Z,101157.98
2018-10-17T17:05:12.995Z,101161.80
2018-10-17T17:07:41.987Z,101169.80
2018-10-17T17:10:12.004Z,101170.89
2018-10-17T17:12:40.933Z,101176.73
2018-10-17T17:15:13.027Z,101179.45
2018-10-17T17:17:42.514Z,101178.52
2018-10-17T17:20:12.158Z,101180.05
2018-10-17T17:22:41.617Z,101184.78
2018-10-17T17:25:10.844Z,101186.41
2018-10-17T17:27:39.912Z,101192.23
2018-10-17T17:30:13.335Z,101193.28
2018-10-17T17:32:42.109Z,101193.69
2018-10-17T17:35:10.936Z,101199.47
2018-10-17T17:37:39.913Z,101198.38
2018-10-17T17:40:10.219Z,101193.08
2018-10-17T17:42:39.041Z,101205.06
2018-10-17T17:45:08.576Z,101202.93
2018-10-17T17:47:37.825Z,101207.98
2018-10-17T17:50:07.444Z,101209.02
2018-10-17T17:52:36.370Z,101215.53
2018-10-17T17:55:09.704Z,101211.98
2018-10-17T17:57:39.642Z,101213.28
2018-10-17T18:00:09.107Z,101227.23
2018-10-17T18:02:37.791Z,101222.59
2018-10-17T18:05:07.378Z,101227.91
2018-10-17T18:07:36.705Z,101227.70
2018-10-17T18:10:05.739Z,101227.48
2018-10-17T18:12:34.784Z,101230.51
2018-10-17T18:15:03.584Z,101236.50
2018-10-17T18:17:32.337Z,101231.39
2018-10-17T18:20:01.461Z,101236.97
2018-10-17T18:22:30.727Z,101233.12
2018-10-17T18:24:59.808Z,101241.70
2018-10-17T18:27:28.752Z,101244.07
2018-10-17T18:29:58.300Z,101241.89
2018-10-17T18:32:27.533Z,101245.89
2018-10-17T18:34:56.474Z,101246.85
2018-10-17T18:37:25.507Z,101243.25
2018-10-17T18:39:54.486Z,101252.95
2018-10-17T18:42:23.462Z,101251.78
2018-10-17T18:44:52.274Z,101249.08
2018-10-17T18:47:21.404Z,101258.11
2018-10-17T18:49:50.375Z,101261.02
2018-10-17T18:52:19.217Z,101262.12
2018-10-17T18:54:48.446Z,101264.06
2018-10-17T18:57:17.496Z,101261.35
2018-10-17T18:59:46.271Z,101262.23
2018-10-17T19:02:15.078Z,101265.45
2018-10-17T19:04:43.738Z,101265.00
2018-10-17T19:07:12.958Z,101264.55
2018-10-17T19:09:42.152Z,101270.99
2018-10-17T19:12:10.956Z,101267.90
2018-10-17T19:14:39.783Z,101271.25
2018-10-17T19:17:09.294Z,101278.92
2018-10-17T19:19:38.478Z,101275.05
2018-10-17T19:22:07.428Z,101282.84
2018-10-17T19:24:36.651Z,101276.64
2018-10-17T19:27:05.750Z,101284.39
2018-10-17T19:29:35.385Z,101284.95
2018-10-17T19:32:05.972Z,101288.63
2018-10-17T19:34:34.894Z,101283.47
2018-10-17T19:37:03.604Z,101284.37
2018-10-17T19:39:32.658Z,101286.31
2018-10-17T19:42:01.547Z,101292.09
2018-10-17T19:44:30.733Z,101289.60
2018-10-17T19:46:59.731Z,101292.48
2018-10-17T19:49:28.426Z,101291.37
2018-10-17T19:51:57.829Z,101301.98
2018-10-17T19:54:26.904Z,101307.08
2018-10-17T19:56:56.058Z,101309.19
2018-10-17T19:59:24.745Z,101308.12
2018-10-17T20:01:53.636Z,101310.23
2018-10-17T20:04:22.619Z,101309.16
2018-10-17T20:06:51.796Z,101302.19
2018-10-17T20:09:20.647Z,101309.54
2018-10-17T20:11:49.411Z,101309.84
2018-10-17T20:14:18.629Z,101312.23
2018-10-17T20:16:47.272Z,101305.34
2018-10-17T20:19:16.328Z,101307.91
2018-10-17T20:21:45.274Z,101310.67
2018-10-17T20:24:14.060Z,101310.44
2018-10-17T20:26:42.847Z,101309.05
2018-10-17T20:29:11.713Z,101307.84
2018-10-17T20:31:40.526Z,101306.05
2018-10-17T20:34:09.286Z,101309.29
2018-10-17T20:36:37.915Z,101311.16
2018-10-17T20:39:11.043Z,101317.39
2018-10-17T20:41:40.232Z,101312.22
2018-10-17T20:44:10.047Z,101312.08
2018-10-17T20:46:38.801Z,101307.20
2018-10-17T20:49:09.013Z,101306.53
2018-10-17T20:51:38.096Z,101308.11
2018-10-17T20:54:07.423Z,101306.09
2018-10-17T20:56:36.529Z,101309.08
2018-10-17T20:59:05.751Z,101311.50
2018-10-17T21:01:34.878Z,101313.42
2018-10-17T21:04:04.080Z,101319.30
2018-10-17T21:06:32.808Z,101324.09
2018-10-17T21:09:02.509Z,101320.80
2018-10-17T21:11:31.322Z,101326.05
2018-10-17T21:14:00.481Z,101331.13
2018-10-17T21:16:29.510Z,101333.23
2018-10-17T21:18:58.755Z,101337.25
2018-10-17T21:21:27.418Z,101339.06
2018-10-17T21:23:56.111Z,101333.36
2018-10-17T21:26:24.923Z,101336.94
2018-10-17T21:28:54.604Z,101336.94
2018-10-17T21:31:24.184Z,101339.79
2018-10-17T21:33:53.769Z,101334.55
2018-10-17T21:36:22.585Z,101345.03
2018-10-17T21:38:51.711Z,101343.76
2018-10-17T21:41:21.324Z,101344.87
2018-10-17T21:43:51.546Z,101351.22
2018-10-17T21:46:20.998Z,101347.64
2018-10-17T21:48:49.817Z,101348.16
2018-10-17T21:51:19.213Z,101346.83
2018-10-17T21:53:48.345Z,101351.17
2018-10-17T21:56:17.198Z,101348.91
2018-10-17T21:58:46.343Z,101354.64
2018-10-17T22:01:15.060Z,101352.11
2018-10-17T22:03:44.156Z,101352.09
2018-10-17T22:06:12.927Z,101344.52
2018-10-17T22:08:42.395Z,101348.48
2018-10-17T22:11:11.124Z,101346.44
2018-10-17T22:13:40.275Z,101346.88
2018-10-17T22:16:09.020Z,101352.34
2018-10-17T22:18:37.778Z,101359.28
2018-10-17T22:21:07.077Z,101350.91
2018-10-17T22:23:35.989Z,101360.91
2018-10-17T22:26:04.873Z,101364.03
2018-10-17T22:28:34.114Z,101360.41
2018-10-17T22:31:03.030Z,101364.45
2018-10-17T22:33:32.073Z,101363.11
2018-10-17T22:36:00.857Z,101366.83
2018-10-17T22:38:30.041Z,101369.16
2018-10-17T22:40:58.858Z,101376.17
2018-10-17T22:43:28.396Z,101369.67
2018-10-17T22:45:58.265Z,101377.75
2018-10-17T22:48:27.134Z,101378.35
2018-10-17T22:50:56.002Z,101374.78
2018-10-17T22:53:24.782Z,101375.91
2018-10-17T22:55:53.600Z,101379.34
2018-10-17T22:58:22.644Z,101366.34
2018-10-17T23:00:51.633Z,101381.48
2018-10-17T23:03:20.313Z,101383.06
2018-10-17T23:05:49.010Z,101381.91
2018-10-17T23:08:18.513Z,101385.42
2018-10-17T23:10:47.642Z,101388.53
2018-10-17T23:13:16.695Z,101389.27
2018-10-17T23:15:45.681Z,101384.31
2018-10-17T23:18:14.584Z,101387.29
2018-10-17T23:20:43.655Z,101379.66
2018-10-17T23:23:12.394Z,101383.52
2018-10-17T23:25:41.880Z,101382.77
2018-10-17T23:28:10.534Z,101383.01
2018-10-17T23:30:39.299Z,101380.86
2018-10-17T23:33:08.422Z,101389.77
2018-10-17T23:35:37.878Z,101387.62
2018-10-17T23:38:07.066Z,101384.34
2018-10-17T23:40:35.843Z,101383.41
2018-10-17T23:43:07.970Z,101387.69
2018-10-17T23:45:37.077Z,101393.02
2018-10-17T23:48:07.497Z,101395.08
2018-10-17T23:50:37.754Z,101400.95
2018-10-17T23:53:07.556Z,101402.17
2018-10-17T23:55:37.175Z,101399.03
2018-10-17T23:58:06.380Z,101397.03
